createdAt,value
2023-03-30T00:01:17.291Z,21.85
2023-03-30T00:03:47.960Z,19.58
2023-03-30T00:06:23.208Z,24.27
2023-03-30T00:08:58.202Z,18.05
2023-03-30T00:11:27.956Z,22.15
2023-03-30T00:13:57.434Z,22.75
2023-03-30T00:16:28.721Z,21.52
2023-03-30T00:18:58.519Z,22.30
2023-03-30T00:21:28.273Z,20.20
2023-03-30T00:24:01.102Z,21.67
2023-03-30T00:26:29.896Z,21.67
2023-03-30T00:28:58.317Z,18.70
2023-03-30T00:31:27.335Z,19.63
2023-03-30T00:33:56.318Z,17.48
2023-03-30T00:36:26.167Z,17.75
2023-03-30T00:38:55.377Z,19.27
2023-03-30T00:41:26.397Z,20.73
2023-03-30T00:43:58.140Z,17.58
2023-03-30T00:46:27.251Z,19.48
2023-03-30T00:48:58.906Z,18.25
2023-03-30T00:54:01.829Z,17.55
2023-03-30T00:56:32.219Z,17.95
2023-03-30T00:59:03.812Z,17.48
2023-03-30T01:01:39.070Z,18.10
2023-03-30T01:04:11.245Z,18.13
2023-03-30T01:06:43.617Z,16.63
2023-03-30T01:09:12.537Z,22.73
2023-03-30T01:11:43.770Z,17.63
2023-03-30T01:14:16.450Z,21.73
2023-03-30T01:16:53.126Z,19.10
2023-03-30T01:19:48.741Z,22.25
2023-03-30T01:22:38.651Z,18.25
2023-03-30T01:25:31.130Z,14.45
2023-03-30T01:28:15.741Z,21.35
2023-03-30T01:31:06.853Z,19.90
2023-03-30T01:33:56.057Z,18.38
2023-03-30T01:36:58.096Z,20.58
2023-03-30T01:42:12.257Z,21.30
2023-03-30T01:44:50.262Z,19.30
2023-03-30T01:47:24.838Z,18.17
2023-03-30T01:50:00.466Z,18.52
2023-03-30T01:52:37.112Z,16.15
2023-03-30T01:55:14.918Z,17.55
2023-03-30T01:57:49.238Z,17.95
2023-03-30T02:00:21.342Z,15.13
2023-03-30T02:02:54.796Z,19.17
2023-03-30T02:05:25.001Z,16.45
2023-03-30T02:08:02.042Z,20.17
2023-03-30T02:10:34.825Z,17.13
2023-03-30T02:13:04.648Z,17.77
2023-03-30T02:15:37.326Z,16.40
2023-03-30T02:18:06.657Z,17.10
2023-03-30T02:20:36.429Z,21.98
2023-03-30T02:23:06.775Z,16.85
2023-03-30T02:25:39.162Z,15.45
2023-03-30T02:28:09.389Z,18.08
2023-03-30T02:30:41.890Z,17.80
2023-03-30T02:33:17.592Z,14.90
2023-03-30T02:36:03.321Z,14.88
2023-03-30T02:39:07.470Z,18.27
2023-03-30T02:42:16.805Z,14.68
2023-03-30T02:44:49.697Z,17.55
2023-03-30T02:47:26.262Z,15.15
2023-03-30T02:50:01.011Z,16.27
2023-03-30T02:52:47.298Z,17.52
2023-03-30T02:55:22.528Z,21.63
2023-03-30T02:58:31.801Z,13.70
2023-03-30T03:01:33.807Z,17.65
2023-03-30T03:04:15.675Z,16.92
2023-03-30T03:07:07.498Z,19.83
2023-03-30T03:09:36.922Z,19.65
2023-03-30T03:12:07.225Z,15.45
2023-03-30T03:14:41.521Z,17.02
2023-03-30T03:17:10.277Z,17.02
2023-03-30T03:19:44.955Z,19.33
2023-03-30T03:22:16.123Z,17.03
2023-03-30T03:24:44.965Z,21.98
2023-03-30T03:30:09.146Z,28.95
2023-03-30T03:32:44.490Z,19.70
2023-03-30T03:35:14.571Z,19.92
2023-03-30T03:37:43.235Z,23.33
2023-03-30T03:40:16.766Z,24.77
2023-03-30T03:42:46.134Z,26.20
2023-03-30T03:45:17.445Z,25.35
2023-03-30T03:47:55.742Z,26.05
2023-03-30T03:50:37.063Z,28.35
2023-03-30T03:53:05.984Z,28.67
2023-03-30T03:55:36.021Z,24.00
2023-03-30T03:58:05.901Z,25.58
2023-03-30T04:00:39.469Z,24.60
2023-03-30T04:03:09.205Z,20.05
2023-03-30T04:05:38.132Z,20.80
2023-03-30T04:08:11.046Z,20.88
2023-03-30T04:10:42.722Z,26.45
2023-03-30T04:13:20.548Z,24.52
2023-03-30T04:16:10.144Z,19.92
2023-03-30T04:19:00.086Z,23.38
2023-03-30T04:21:50.801Z,22.83
2023-03-30T04:24:37.805Z,27.40
2023-03-30T04:27:26.058Z,24.75
2023-03-30T04:32:41.383Z,21.90
2023-03-30T04:35:14.877Z,20.98
2023-03-30T04:38:02.376Z,20.15
2023-03-30T04:40:40.009Z,21.77
2023-03-30T04:43:21.632Z,23.20
2023-03-30T04:46:10.681Z,19.90
2023-03-30T04:49:06.237Z,17.40
2023-03-30T04:51:54.819Z,19.70
2023-03-30T04:54:46.686Z,26.73
2023-03-30T04:57:34.076Z,21.33
2023-03-30T05:00:12.384Z,22.05
2023-03-30T05:03:22.385Z,19.50
2023-03-30T05:08:52.587Z,21.02
2023-03-30T05:11:40.164Z,21.60
2023-03-30T05:14:20.151Z,24.65
2023-03-30T05:17:07.661Z,24.95
2023-03-30T05:19:53.763Z,22.73
2023-03-30T05:22:47.132Z,21.48
2023-03-30T05:25:35.542Z,21.08
2023-03-30T05:28:23.913Z,21.15
2023-03-30T05:31:12.422Z,19.95
2023-03-30T05:33:52.351Z,21.92
2023-03-30T05:36:21.499Z,21.42
2023-03-30T05:39:23.515Z,19.48
2023-03-30T05:42:05.876Z,28.38
2023-03-30T05:44:52.044Z,24.33
2023-03-30T05:47:38.854Z,22.35
2023-03-30T05:50:14.275Z,20.30
2023-03-30T05:52:56.758Z,18.02
2023-03-30T05:55:34.660Z,22.08
2023-03-30T05:58:25.304Z,15.40
2023-03-30T06:01:10.735Z,17.10
2023-03-30T06:03:42.807Z,18.75
2023-03-30T06:06:13.848Z,16.77
2023-03-30T06:08:43.457Z,16.20
2023-03-30T06:11:17.398Z,18.92
2023-03-30T06:14:11.555Z,19.45
2023-03-30T06:16:43.208Z,22.08
2023-03-30T06:19:15.947Z,16.60
2023-03-30T06:21:46.615Z,19.85
2023-03-30T06:24:27.240Z,15.73
2023-03-30T06:26:57.059Z,16.17
2023-03-30T06:29:28.539Z,17.58
2023-03-30T06:31:57.493Z,21.83
2023-03-30T06:34:58.110Z,19.10
2023-03-30T06:37:29.002Z,17.00
2023-03-30T06:39:57.759Z,18.42
2023-03-30T06:42:28.135Z,19.75
2023-03-30T06:45:21.622Z,13.90
2023-03-30T06:47:50.523Z,20.65
2023-03-30T06:50:19.613Z,16.80
2023-03-30T06:55:44.708Z,20.88
2023-03-30T06:58:22.206Z,13.73
2023-03-30T07:00:53.043Z,17.33
2023-03-30T07:03:30.094Z,19.10
2023-03-30T07:06:22.780Z,17.70
2023-03-30T07:08:51.810Z,19.40
2023-03-30T07:11:24.252Z,17.60
2023-03-30T07:13:56.340Z,18.05
2023-03-30T07:16:26.520Z,14.40
2023-03-30T07:18:55.939Z,15.40
2023-03-30T07:21:26.425Z,15.68
2023-03-30T07:23:55.108Z,14.45
2023-03-30T07:26:33.050Z,17.27
2023-03-30T07:29:07.642Z,17.90
2023-03-30T07:31:40.351Z,17.40
2023-03-30T07:34:11.454Z,20.05
2023-03-30T07:36:45.882Z,13.63
2023-03-30T07:39:14.912Z,14.48
2023-03-30T07:41:47.320Z,16.08
2023-03-30T07:44:16.059Z,13.38
2023-03-30T07:46:46.608Z,17.15
2023-03-30T07:49:21.779Z,15.10
2023-03-30T07:51:50.935Z,15.02
2023-03-30T07:54:27.209Z,14.00
2023-03-30T07:57:19.638Z,12.15
2023-03-30T07:59:48.276Z,13.73
2023-03-30T08:02:31.931Z,18.73
2023-03-30T08:05:01.407Z,16.88
2023-03-30T08:07:43.178Z,13.70
2023-03-30T08:10:19.019Z,15.90
2023-03-30T08:12:47.761Z,14.05
2023-03-30T08:15:16.355Z,13.50
2023-03-30T08:17:46.310Z,13.55
2023-03-30T08:20:16.171Z,16.00
2023-03-30T08:22:44.912Z,21.67
2023-03-30T08:25:14.015Z,18.35
2023-03-30T08:27:42.600Z,15.18
2023-03-30T08:30:14.681Z,17.05
2023-03-30T08:32:43.524Z,15.27
2023-03-30T08:35:14.182Z,15.98
2023-03-30T08:37:43.134Z,13.40
2023-03-30T08:40:19.022Z,14.73
2023-03-30T08:43:19.467Z,15.73
2023-03-30T08:45:48.918Z,13.30
2023-03-30T08:48:21.306Z,14.32
2023-03-30T08:50:58.188Z,16.88
2023-03-30T08:53:29.351Z,18.88
2023-03-30T08:56:02.873Z,15.48
2023-03-30T08:58:40.188Z,30.27
2023-03-30T09:01:19.880Z,24.55
2023-03-30T09:04:09.321Z,17.52
2023-03-30T09:06:49.604Z,21.38
2023-03-30T09:09:21.028Z,17.90
2023-03-30T09:11:55.054Z,14.68
2023-03-30T09:14:34.088Z,12.63
2023-03-30T09:17:10.201Z,14.75
2023-03-30T09:19:49.570Z,11.90
2023-03-30T09:22:21.077Z,13.18
2023-03-30T09:24:51.753Z,13.30
2023-03-30T09:27:29.462Z,13.85
2023-03-30T09:30:08.625Z,17.58
2023-03-30T09:32:43.473Z,18.38
2023-03-30T09:35:16.159Z,13.82
2023-03-30T09:37:46.963Z,11.57
2023-03-30T09:40:28.397Z,12.60
2023-03-30T09:43:03.119Z,15.07
2023-03-30T09:45:34.737Z,10.63
2023-03-30T09:48:08.965Z,13.23
2023-03-30T09:50:42.835Z,10.18
2023-03-30T09:53:24.936Z,11.55
2023-03-30T09:56:02.291Z,12.02
2023-03-30T09:58:33.084Z,13.00
2023-03-30T10:01:09.447Z,16.95
2023-03-30T10:03:40.291Z,13.95
2023-03-30T10:06:13.196Z,16.60
2023-03-30T10:08:50.709Z,17.05
2023-03-30T10:11:31.430Z,30.92
2023-03-30T10:14:01.076Z,54.00
2023-03-30T10:16:33.324Z,21.13
2023-03-30T10:19:04.312Z,17.85
2023-03-30T10:21:40.377Z,12.50
2023-03-30T10:24:23.539Z,12.52
2023-03-30T10:26:54.261Z,9.48
2023-03-30T10:29:25.031Z,7.72
2023-03-30T10:32:00.093Z,11.15
2023-03-30T10:34:37.793Z,9.85
2023-03-30T10:37:11.013Z,8.82
2023-03-30T10:39:43.985Z,10.85
2023-03-30T10:42:18.115Z,10.77
2023-03-30T10:44:50.718Z,9.23
2023-03-30T10:47:38.955Z,10.25
2023-03-30T10:50:17.322Z,9.90
2023-03-30T10:52:59.334Z,12.48
2023-03-30T10:55:41.819Z,9.98
2023-03-30T10:58:26.422Z,9.05
2023-03-30T11:01:05.277Z,9.77
2023-03-30T11:03:37.846Z,10.40
2023-03-30T11:06:15.339Z,14.98
2023-03-30T11:08:48.232Z,9.38
2023-03-30T11:11:25.166Z,11.27
2023-03-30T11:14:03.247Z,12.52
2023-03-30T11:16:40.643Z,13.75
2023-03-30T11:19:17.403Z,37.63
2023-03-30T11:21:57.839Z,13.38
2023-03-30T11:24:29.557Z,10.23
2023-03-30T11:27:08.384Z,10.00
2023-03-30T11:29:43.990Z,10.30
2023-03-30T11:32:26.232Z,21.58
2023-03-30T11:35:07.615Z,17.67
2023-03-30T11:37:42.685Z,15.68
2023-03-30T11:40:19.232Z,12.93
2023-03-30T11:42:51.018Z,9.90
2023-03-30T11:45:40.569Z,8.52
2023-03-30T11:48:27.127Z,12.77
2023-03-30T11:51:09.175Z,8.52
2023-03-30T11:56:13.221Z,7.65
2023-03-30T11:58:48.231Z,7.18
2023-03-30T12:01:35.539Z,5.28
2023-03-30T12:04:11.119Z,7.03
2023-03-30T12:06:42.133Z,5.65
2023-03-30T12:09:25.019Z,6.93
2023-03-30T12:11:58.072Z,5.78
2023-03-30T12:15:11.662Z,3.63
2023-03-30T12:17:48.961Z,5.70
2023-03-30T12:20:30.297Z,5.97
2023-03-30T12:23:06.184Z,7.45
2023-03-30T12:25:42.279Z,4.65
2023-03-30T12:28:13.379Z,6.35
2023-03-30T12:30:55.124Z,9.07
2023-03-30T12:35:59.919Z,7.68
2023-03-30T12:38:38.538Z,6.82
2023-03-30T12:41:18.659Z,9.93
2023-03-30T12:44:32.682Z,11.50
2023-03-30T12:47:20.105Z,7.65
2023-03-30T12:50:01.801Z,10.35
2023-03-30T12:52:43.151Z,9.43
2023-03-30T12:55:43.135Z,7.18
2023-03-30T12:58:50.272Z,9.60
2023-03-30T13:01:32.249Z,9.02
2023-03-30T13:04:07.888Z,9.20
2023-03-30T13:06:38.412Z,8.52
2023-03-30T13:09:52.532Z,8.73
2023-03-30T13:12:31.957Z,7.18
2023-03-30T13:15:08.371Z,6.30
2023-03-30T13:17:58.769Z,8.40
2023-03-30T13:20:34.419Z,6.55
2023-03-30T13:23:32.396Z,9.13
2023-03-30T13:26:08.032Z,8.05
2023-03-30T13:28:48.914Z,7.43
2023-03-30T13:31:37.987Z,8.55
2023-03-30T13:34:19.120Z,7.20
2023-03-30T13:37:01.283Z,8.98
2023-03-30T13:39:40.534Z,10.35
2023-03-30T13:42:34.580Z,13.25
2023-03-30T13:45:10.800Z,20.75
2023-03-30T13:47:57.509Z,15.82
2023-03-30T13:50:31.315Z,12.73
2023-03-30T13:53:05.577Z,11.85
2023-03-30T13:55:38.734Z,9.63
2023-03-30T13:58:14.130Z,12.00
2023-03-30T14:00:49.207Z,12.88
2023-03-30T14:03:29.403Z,9.60
2023-03-30T14:06:04.236Z,9.65
2023-03-30T14:08:37.295Z,10.02
2023-03-30T14:11:15.518Z,9.70
2023-03-30T14:13:45.161Z,9.80
2023-03-30T14:16:21.145Z,14.00
2023-03-30T14:18:51.152Z,23.80
2023-03-30T14:21:22.266Z,24.33
2023-03-30T14:23:54.336Z,24.50
2023-03-30T14:31:24.210Z,12.57
2023-03-30T14:33:53.088Z,13.98
2023-03-30T14:36:23.206Z,14.85
2023-03-30T14:38:55.135Z,15.07
2023-03-30T14:41:27.652Z,18.52
2023-03-30T14:44:01.557Z,29.17
2023-03-30T14:46:39.183Z,18.70
2023-03-30T14:49:09.238Z,18.10
2023-03-30T14:51:40.756Z,17.40
2023-03-30T14:56:45.516Z,11.73
2023-03-30T14:59:16.169Z,12.85
2023-03-30T15:01:45.490Z,24.50
2023-03-30T15:04:17.343Z,23.08
2023-03-30T15:06:48.818Z,32.28
2023-03-30T15:09:21.219Z,35.78
2023-03-30T15:11:54.432Z,46.72
2023-03-30T15:14:24.468Z,76.68
2023-03-30T15:16:56.778Z,127.75
2023-03-30T15:19:30.074Z,174.65
2023-03-30T15:22:03.311Z,161.18
2023-03-30T15:24:38.115Z,119.05
2023-03-30T15:27:11.868Z,90.68
2023-03-30T15:29:42.148Z,111.95
2023-03-30T15:32:16.919Z,97.05
2023-03-30T15:35:07.129Z,80.53
2023-03-30T15:37:36.987Z,53.88
2023-03-30T15:40:29.056Z,42.75
2023-03-30T15:43:13.101Z,42.25
2023-03-30T15:45:47.561Z,40.28
2023-03-30T15:48:20.046Z,39.10
2023-03-30T15:50:54.257Z,31.42
2023-03-30T15:53:34.470Z,26.27
2023-03-30T15:56:05.083Z,24.90
2023-03-30T15:58:35.991Z,23.05
2023-03-30T16:01:06.293Z,27.20
2023-03-30T16:03:40.656Z,30.55
2023-03-30T16:06:14.964Z,25.15
2023-03-30T16:08:45.414Z,20.38
2023-03-30T16:11:17.121Z,19.05
2023-03-30T16:13:49.549Z,29.98
2023-03-30T16:16:19.107Z,26.13
2023-03-30T16:18:48.803Z,41.47
2023-03-30T16:21:19.214Z,34.05
2023-03-30T16:23:49.360Z,30.35
2023-03-30T16:26:20.006Z,30.70
2023-03-30T16:28:52.383Z,25.80
2023-03-30T16:31:23.890Z,33.75
2023-03-30T16:33:53.154Z,35.63
2023-03-30T16:36:24.226Z,51.72
2023-03-30T16:38:55.309Z,58.92
2023-03-30T16:41:25.856Z,45.63
2023-03-30T16:43:54.580Z,33.47
2023-03-30T16:46:24.390Z,42.60
2023-03-30T16:48:53.158Z,63.92
2023-03-30T16:51:22.864Z,66.00
2023-03-30T16:53:52.099Z,80.45
2023-03-30T16:56:21.954Z,85.32
2023-03-30T16:58:52.144Z,47.15
2023-03-30T17:01:21.776Z,41.03
2023-03-30T17:03:50.542Z,33.22
2023-03-30T17:06:19.133Z,40.22
2023-03-30T17:08:48.716Z,46.03
2023-03-30T17:11:18.432Z,31.27
2023-03-30T17:13:49.150Z,29.05
2023-03-30T17:16:20.128Z,38.28
2023-03-30T17:18:48.826Z,29.23
2023-03-30T17:21:18.568Z,32.38
2023-03-30T17:23:48.111Z,33.58
2023-03-30T17:26:17.614Z,39.50
2023-03-30T17:28:46.595Z,56.00
2023-03-30T17:31:19.233Z,53.85
2023-03-30T17:33:48.836Z,54.55
2023-03-30T17:36:19.786Z,50.30
2023-03-30T17:38:49.347Z,42.08
2023-03-30T17:41:19.720Z,40.88
2023-03-30T17:43:48.905Z,40.85
2023-03-30T17:46:20.808Z,28.95
2023-03-30T17:51:20.732Z,43.08
2023-03-30T17:53:49.246Z,34.72
2023-03-30T17:56:17.978Z,44.05
2023-03-30T17:58:46.634Z,28.58
2023-03-30T18:01:17.150Z,20.70
2023-03-30T18:03:47.200Z,18.20
2023-03-30T18:06:16.607Z,24.55
2023-03-30T18:08:45.362Z,29.85
2023-03-30T18:11:14.611Z,35.20
2023-03-30T18:13:43.259Z,39.95
2023-03-30T18:16:13.346Z,40.38
2023-03-30T18:18:42.167Z,28.88
2023-03-30T18:21:13.160Z,27.23
2023-03-30T18:23:42.325Z,23.55
2023-03-30T18:26:14.001Z,30.08
2023-03-30T18:28:44.486Z,28.80
2023-03-30T18:31:13.968Z,20.15
2023-03-30T18:33:42.482Z,28.40
2023-03-30T18:36:15.831Z,24.27
2023-03-30T18:38:45.123Z,20.38
2023-03-30T18:41:15.360Z,22.10
2023-03-30T18:43:47.048Z,21.65
2023-03-30T18:46:18.245Z,19.13
2023-03-30T18:48:47.369Z,20.67
2023-03-30T18:51:17.642Z,21.23
2023-03-30T18:53:46.770Z,20.80
2023-03-30T18:56:15.940Z,21.30
2023-03-30T18:58:44.950Z,29.48
2023-03-30T19:01:17.862Z,30.67
2023-03-30T19:03:46.927Z,30.40
2023-03-30T19:06:22.977Z,22.23
2023-03-30T19:08:52.136Z,20.80
2023-03-30T19:11:23.656Z,24.60
2023-03-30T19:13:53.797Z,19.77
2023-03-30T19:16:23.490Z,23.75
2023-03-30T19:18:53.867Z,27.88
2023-03-30T19:21:24.890Z,24.77
2023-03-30T19:23:55.209Z,23.83
2023-03-30T19:26:24.059Z,24.13
2023-03-30T19:28:52.711Z,20.83
2023-03-30T19:31:22.431Z,20.20
2023-03-30T19:33:52.294Z,26.88
2023-03-30T19:36:23.286Z,22.75
2023-03-30T19:38:55.256Z,22.00
2023-03-30T19:41:24.025Z,22.08
2023-03-30T19:43:52.647Z,19.73
2023-03-30T19:46:22.241Z,16.67
2023-03-30T19:48:51.079Z,19.38
2023-03-30T19:51:20.264Z,20.90
2023-03-30T19:53:49.069Z,23.08
2023-03-30T19:56:19.360Z,20.17
2023-03-30T19:58:47.997Z,21.98
2023-03-30T20:01:16.815Z,17.17
2023-03-30T20:03:45.442Z,19.10
2023-03-30T20:06:14.413Z,18.13
2023-03-30T20:08:44.094Z,16.58
2023-03-30T20:11:13.805Z,20.08
2023-03-30T20:13:46.090Z,19.52
2023-03-30T20:16:20.527Z,19.95
2023-03-30T20:18:50.848Z,21.35
2023-03-30T20:21:20.299Z,21.98
2023-03-30T20:23:49.284Z,20.50
2023-03-30T20:26:19.627Z,22.55
2023-03-30T20:28:49.986Z,22.40
2023-03-30T20:31:18.888Z,20.60
2023-03-30T20:33:48.276Z,22.80
2023-03-30T20:36:16.979Z,25.55
2023-03-30T20:38:46.283Z,22.70
2023-03-30T20:41:15.139Z,21.00
2023-03-30T20:43:56.921Z,19.42
2023-03-30T20:46:35.525Z,18.58
2023-03-30T20:49:04.750Z,15.07
2023-03-30T20:51:33.952Z,16.98
2023-03-30T20:54:02.758Z,16.23
2023-03-30T20:56:31.603Z,13.20
2023-03-30T20:59:00.663Z,17.55
2023-03-30T21:01:30.687Z,17.35
2023-03-30T21:04:01.118Z,13.63
2023-03-30T21:06:31.900Z,15.25
2023-03-30T21:09:02.888Z,12.73
2023-03-30T21:11:34.191Z,13.35
2023-03-30T21:14:03.288Z,17.27
2023-03-30T21:16:34.427Z,14.55
2023-03-30T21:19:03.032Z,14.40
2023-03-30T21:21:33.957Z,11.20
2023-03-30T21:24:02.866Z,14.68
2023-03-30T21:26:31.722Z,12.07
2023-03-30T21:29:00.633Z,13.32
2023-03-30T21:31:29.544Z,13.57
2023-03-30T21:34:01.617Z,13.48
2023-03-30T21:36:30.415Z,15.27
2023-03-30T21:39:00.894Z,15.85
2023-03-30T21:41:30.538Z,15.75
2023-03-30T21:43:59.211Z,13.35
2023-03-30T21:46:29.290Z,13.73
2023-03-30T21:48:59.574Z,13.38
2023-03-30T21:51:30.412Z,13.60
2023-03-30T21:54:00.087Z,14.83
2023-03-30T21:56:31.170Z,13.57
2023-03-30T21:59:00.109Z,11.90
2023-03-30T22:01:29.280Z,13.93
2023-03-30T22:03:59.924Z,16.15
2023-03-30T22:06:28.936Z,12.45
2023-03-30T22:08:57.765Z,13.23
2023-03-30T22:11:27.635Z,14.73
2023-03-30T22:13:56.724Z,15.35
2023-03-30T22:16:28.329Z,14.55
2023-03-30T22:18:57.189Z,15.60
2023-03-30T22:21:34.199Z,14.07
2023-03-30T22:24:03.796Z,14.38
2023-03-30T22:26:32.742Z,16.02
2023-03-30T22:29:01.517Z,14.88
2023-03-30T22:31:29.929Z,16.30
2023-03-30T22:33:59.010Z,14.85
2023-03-30T22:36:31.154Z,16.08
2023-03-30T22:39:01.359Z,17.33
2023-03-30T22:41:30.338Z,16.08
2023-03-30T22:44:00.140Z,12.75
2023-03-30T22:46:29.451Z,15.05
2023-03-30T22:49:00.303Z,15.15
2023-03-30T22:51:31.117Z,13.98
2023-03-30T22:54:01.062Z,13.48
2023-03-30T22:56:31.180Z,14.82
2023-03-30T22:59:01.092Z,13.32
2023-03-30T23:01:32.325Z,13.93
2023-03-30T23:04:02.004Z,16.80
2023-03-30T23:06:33.800Z,11.43
2023-03-30T23:09:03.740Z,12.35
2023-03-30T23:11:34.303Z,11.27
2023-03-30T23:14:05.481Z,14.75
2023-03-30T23:16:36.117Z,12.98
2023-03-30T23:19:05.705Z,12.13
2023-03-30T23:21:35.907Z,10.90
2023-03-30T23:24:06.266Z,11.70
2023-03-30T23:26:36.084Z,13.63
2023-03-30T23:29:05.181Z,13.93
2023-03-30T23:31:34.920Z,11.95
2023-03-30T23:34:03.616Z,14.38
2023-03-30T23:36:33.438Z,16.77
2023-03-30T23:39:03.788Z,15.43
2023-03-30T23:41:32.403Z,12.07
2023-03-30T23:44:01.307Z,14.68
2023-03-30T23:46:30.259Z,14.25
2023-03-30T23:48:59.105Z,13.05
2023-03-30T23:51:27.668Z,12.43
2023-03-30T23:54:00.205Z,13.32
2023-03-30T23:56:32.241Z,13.80
2023-03-30T23:59:01.094Z,14.07
